Time;durP1;ratioP1;P1;durP2;ratioP2;P2;SDS_P1;SDS_P2;PMS_P1;PMS_P2;Temp;Humidity;BMP_temperature;BMP_pressure;BME280_temperature;BME280_humidity;BME280_pressure;Samples;Min_cycle;Max_cycle;Signal;HPM_P1;HPM_P2
2022/09/03 00:00:10;;;;;;;3.53;3.23;;;19.20;89.70;;;;;;10458020;28;20213;-82
2022/09/03 00:05:19;;;;;;;3.10;2.90;;;19.20;90.40;;;;;;10464536;28;20197;-81
2022/09/03 00:10:28;;;;;;;3.10;2.90;;;19.20;91.20;;;;;;10469421;28;20225;-82
2022/09/03 00:15:34;;;;;;;3.20;3.00;;;19.30;91.10;;;;;;10469232;28;20261;-82
2022/09/03 00:20:43;;;;;;;4.70;3.77;;;19.30;90.90;;;;;;10462781;28;20681;-81
2022/09/03 00:25:50;;;;;;;3.70;3.50;;;19.40;91.40;;;;;;10450243;28;20673;-82
2022/09/03 00:31:06;;;;;;;3.87;3.17;;;19.50;91.40;;;;;;10442638;28;20594;-82
2022/09/03 00:36:16;;;;;;;3.10;3.00;;;19.50;90.40;;;;;;10427328;28;20243;-82
2022/09/03 00:41:30;;;;;;;3.80;3.50;;;19.60;90.30;;;;;;10455823;28;20240;-82
2022/09/03 00:46:40;;;;;;;3.40;3.20;;;19.60;90.50;;;;;;10451312;28;20212;-82
2022/09/03 00:51:54;;;;;;;3.40;3.20;;;19.70;90.70;;;;;;10424286;28;20608;-81
2022/09/03 00:57:09;;;;;;;3.13;3.03;;;19.70;91.00;;;;;;10446292;28;20197;-82
2022/09/03 01:02:19;;;;;;;3.00;2.87;;;19.70;89.20;;;;;;10436932;28;20213;-82
2022/09/03 01:07:35;;;;;;;6.93;3.00;;;19.70;89.00;;;;;;10449292;28;20704;-81
2022/09/03 01:12:50;;;;;;;2.60;2.50;;;19.60;90.00;;;;;;10444932;28;20266;-82
2022/09/03 01:18:02;;;;;;;7.67;3.13;;;19.50;91.10;;;;;;10441521;28;20232;-82
2022/09/03 01:23:45;;;;;;;2.77;2.67;;;19.50;91.30;;;;;;10452217;28;20197;-82
2022/09/03 01:29:01;;;;;;;2.60;2.50;;;19.50;91.40;;;;;;10426871;28;20235;-82
2022/09/03 01:34:14;;;;;;;3.53;2.70;;;19.50;93.80;;;;;;10431036;28;20224;-82
2022/09/03 01:39:26;;;;;;;3.07;2.83;;;19.50;91.20;;;;;;10447245;28;20543;-82
2022/09/03 01:44:40;;;;;;;3.13;2.93;;;19.50;92.40;;;;;;10448993;28;20194;-82
2022/09/03 01:49:47;;;;;;;2.70;2.60;;;19.60;91.80;;;;;;10443429;28;20319;-82
2022/09/03 01:55:01;;;;;;;2.53;2.33;;;19.50;91.10;;;;;;10454953;28;20201;-82
2022/09/03 02:00:09;;;;;;;4.97;2.57;;;19.50;90.90;;;;;;10448753;28;20674;-82
2022/09/03 02:05:16;;;;;;;3.23;3.03;;;19.50;91.00;;;;;;10448328;28;20622;-82
2022/09/03 02:10:23;;;;;;;3.00;2.80;;;19.50;90.30;;;;;;10464048;28;20304;-80
2022/09/03 02:15:29;;;;;;;3.03;2.73;;;19.60;90.50;;;;;;10464895;28;20248;-81
2022/09/03 02:20:32;;;;;;;2.53;2.43;;;19.60;90.70;;;;;;10461515;28;20216;-81
2022/09/03 02:25:39;;;;;;;2.93;2.83;;;19.60;90.40;;;;;;10458690;28;20221;-81
2022/09/03 02:30:43;;;;;;;2.97;2.80;;;19.60;90.50;;;;;;10461187;28;20255;-81
2022/09/03 02:35:46;;;;;;;3.00;2.80;;;19.60;90.70;;;;;;10473821;28;20275;-80
2022/09/03 02:40:48;;;;;;;6.13;3.40;;;19.60;90.60;;;;;;10459637;28;20237;-81
2022/09/03 02:45:56;;;;;;;3.30;3.10;;;19.70;89.60;;;;;;10458653;28;20527;-81
2022/09/03 02:50:59;;;;;;;5.23;2.97;;;19.60;90.10;;;;;;10458904;28;20316;-81
2022/09/03 02:56:01;;;;;;;3.10;3.00;;;19.50;90.70;;;;;;10459342;28;20220;-81
2022/09/03 03:01:06;;;;;;;3.50;3.30;;;19.40;90.00;;;;;;10462887;28;20221;-81
2022/09/03 03:06:08;;;;;;;3.40;3.10;;;19.30;90.30;;;;;;10456040;28;20204;-81
2022/09/03 03:11:10;;;;;;;3.17;3.07;;;19.30;89.60;;;;;;10454735;28;20263;-80
2022/09/03 03:16:16;;;;;;;3.30;2.80;;;19.20;90.30;;;;;;10454344;28;20224;-80
2022/09/03 03:21:19;;;;;;;3.80;3.17;;;19.20;89.30;;;;;;10464059;28;20215;-82
2022/09/03 03:26:23;;;;;;;3.40;3.20;;;19.20;90.10;;;;;;10463798;28;20610;-82
2022/09/03 03:31:27;;;;;;;3.70;3.50;;;19.20;89.10;;;;;;10443533;28;20336;-83
2022/09/03 03:36:31;;;;;;;3.37;3.17;;;19.10;90.00;;;;;;10462359;28;20193;-82
2022/09/03 03:41:36;;;;;;;3.77;3.57;;;19.00;89.20;;;;;;10462358;28;20213;-83
2022/09/03 03:46:41;;;;;;;4.30;3.70;;;19.00;90.10;;;;;;10457530;28;20197;-80
2022/09/03 03:51:43;;;;;;;4.70;3.33;;;18.90;90.00;;;;;;10454942;28;20251;-81
2022/09/03 03:56:45;;;;;;;3.37;2.97;;;18.80;90.50;;;;;;10455259;28;20267;-79
2022/09/03 04:01:49;;;;;;;3.53;3.30;;;18.80;90.40;;;;;;10455863;28;20247;-81
2022/09/03 04:06:51;;;;;;;4.30;3.90;;;18.80;90.90;;;;;;10455832;28;20221;-79
2022/09/03 04:11:56;;;;;;;3.57;3.37;;;18.80;90.80;;;;;;10454976;28;20587;-81
2022/09/03 04:17:00;;;;;;;3.43;3.23;;;18.90;90.30;;;;;;10454402;28;20265;-79
2022/09/03 04:22:02;;;;;;;3.30;3.10;;;18.90;90.30;;;;;;10445686;28;20224;-80
2022/09/03 04:27:04;;;;;;;3.83;3.63;;;18.80;91.00;;;;;;10455732;28;20217;-82
2022/09/03 04:37:28;;;;;;;3.77;3.43;;;18.80;91.60;;;;;;10455309;28;20197;-82
2022/09/03 04:42:30;;;;;;;3.50;3.30;;;18.80;91.80;;;;;;10458997;28;20217;-82
2022/09/03 04:47:35;;;;;;;4.43;3.67;;;18.80;90.90;;;;;;10470408;28;20209;-81
2022/09/03 04:52:37;;;;;;;3.67;3.37;;;18.80;91.30;;;;;;10458834;28;20220;-85
2022/09/03 04:57:41;;;;;;;4.00;3.70;;;18.80;91.40;;;;;;10447812;28;20586;-81
2022/09/03 05:02:47;;;;;;;4.00;3.80;;;18.80;91.50;;;;;;10463708;28;20688;-82
2022/09/03 05:07:49;;;;;;;4.10;3.90;;;18.70;92.30;;;;;;10465250;28;20217;-82
2022/09/03 05:13:00;;;;;;;3.50;3.40;;;18.80;92.00;;;;;;10464118;28;20276;-84
2022/09/03 05:18:03;;;;;;;4.10;3.80;;;18.80;91.40;;;;;;10472291;28;20598;-84
2022/09/03 05:23:06;;;;;;;3.80;3.47;;;18.90;91.60;;;;;;10448310;28;20204;-84
2022/09/03 05:28:08;;;;;;;4.00;3.70;;;18.90;92.10;;;;;;10463426;28;20308;-83
2022/09/03 05:33:14;;;;;;;4.70;4.00;;;18.90;92.00;;;;;;10467462;28;20288;-84
2022/09/03 05:38:16;;;;;;;4.83;4.27;;;19.00;91.50;;;;;;10466544;28;20213;-84
2022/09/03 05:43:19;;;;;;;3.93;3.63;;;19.10;92.50;;;;;;10466822;28;20216;-84
2022/09/03 05:48:23;;;;;;;4.87;4.20;;;19.30;92.30;;;;;;10468503;28;20225;-83
2022/09/03 05:53:25;;;;;;;4.17;3.97;;;19.40;92.30;;;;;;10467479;28;20679;-85
2022/09/03 05:58:30;;;;;;;3.60;3.40;;;19.60;92.20;;;;;;10467157;28;20217;-84
2022/09/03 06:03:34;;;;;;;4.90;4.40;;;19.60;91.70;;;;;;10478001;28;20196;-84
2022/09/03 06:08:37;;;;;;;3.70;3.50;;;19.80;91.60;;;;;;10448848;28;20228;-84
2022/09/03 06:13:39;;;;;;;4.60;4.40;;;19.90;92.60;;;;;;10470478;28;20189;-85
2022/09/03 06:18:43;;;;;;;4.43;4.13;;;19.90;92.50;;;;;;10474463;28;20405;-83
2022/09/03 06:23:50;;;;;;;4.70;4.50;;;19.90;92.20;;;;;;10466456;28;20192;-82
2022/09/03 06:28:55;;;;;;;4.47;4.00;;;20.00;92.40;;;;;;10464638;28;20235;-84
2022/09/03 06:33:58;;;;;;;5.00;4.70;;;20.00;92.20;;;;;;10463652;28;20204;-83
2022/09/03 06:39:01;;;;;;;4.80;4.50;;;20.10;92.10;;;;;;10464102;28;20210;-82
2022/09/03 06:44:05;;;;;;;4.90;4.60;;;20.20;91.70;;;;;;10466989;28;20193;-84
2022/09/03 06:49:09;;;;;;;5.00;4.70;;;20.30;91.50;;;;;;10466050;28;20221;-84
2022/09/03 06:54:14;;;;;;;4.30;4.10;;;20.40;91.00;;;;;;10471525;28;20197;-83
2022/09/03 06:59:16;;;;;;;5.13;4.63;;;20.50;91.90;;;;;;10471295;28;20291;-84
2022/09/03 07:04:23;;;;;;;6.13;4.27;;;20.60;91.70;;;;;;10462984;28;20209;-84
2022/09/03 07:09:25;;;;;;;4.90;4.53;;;20.70;91.80;;;;;;10443475;28;20223;-80
2022/09/03 07:14:28;;;;;;;4.40;4.00;;;20.80;92.10;;;;;;10460570;28;20280;-80
2022/09/03 07:19:31;;;;;;;4.40;4.20;;;20.90;92.00;;;;;;10462661;28;20225;-81
2022/09/03 07:24:34;;;;;;;5.63;5.17;;;21.10;92.10;;;;;;10441762;28;20231;-81
2022/09/03 07:29:36;;;;;;;5.33;5.00;;;21.20;91.80;;;;;;10457691;28;20301;-80
2022/09/03 07:34:40;;;;;;;5.07;4.77;;;21.20;92.40;;;;;;10462895;28;20197;-79
2022/09/03 07:39:42;;;;;;;5.93;5.63;;;21.20;93.20;;;;;;10459335;28;20638;-79
2022/09/03 07:44:44;;;;;;;5.77;5.37;;;21.30;93.30;;;;;;10463428;28;20195;-79
2022/09/03 07:49:48;;;;;;;5.40;5.10;;;21.60;93.00;;;;;;10463718;28;20662;-80
2022/09/03 07:54:50;;;;;;;4.37;4.07;;;21.80;92.30;;;;;;10449685;28;20273;-78
2022/09/03 07:59:52;;;;;;;5.20;4.73;;;21.90;92.50;;;;;;10455606;28;20217;-79
2022/09/03 08:04:56;;;;;;;5.50;5.20;;;22.10;92.30;;;;;;10449547;28;20223;-79
2022/09/03 08:09:58;;;;;;;5.07;4.77;;;22.30;92.40;;;;;;10454057;28;20700;-78
2022/09/03 08:15:01;;;;;;;5.73;4.67;;;22.30;92.60;;;;;;10452078;28;20197;-79
2022/09/03 08:20:05;;;;;;;5.60;5.30;;;22.40;92.50;;;;;;10450770;28;20596;-79
2022/09/03 08:25:08;;;;;;;5.87;5.57;;;22.50;92.30;;;;;;10452111;28;20273;-79
2022/09/03 08:30:11;;;;;;;5.70;5.20;;;22.60;92.30;;;;;;10459568;28;20216;-78
2022/09/03 08:35:14;;;;;;;5.57;5.27;;;22.70;91.50;;;;;;10460454;28;20190;-80
2022/09/03 08:40:16;;;;;;;5.43;5.13;;;22.70;92.20;;;;;;10459845;28;20259;-79
2022/09/03 08:45:21;;;;;;;5.83;5.37;;;22.90;92.20;;;;;;10465886;28;20208;-78
2022/09/03 08:50:29;;;;;;;6.00;4.87;;;23.20;91.70;;;;;;10462650;28;20306;-79
2022/09/03 08:55:41;;;;;;;4.90;4.50;;;23.30;90.70;;;;;;10459712;28;20251;-79
2022/09/03 09:00:49;;;;;;;5.70;5.40;;;23.40;91.10;;;;;;10459694;28;20268;-79
2022/09/03 09:05:58;;;;;;;5.63;5.10;;;23.60;91.30;;;;;;10461468;28;20247;-78
2022/09/03 09:11:08;;;;;;;5.10;4.80;;;23.80;91.90;;;;;;10458434;28;20228;-78
2022/09/03 09:16:18;;;;;;;6.10;5.50;;;23.90;90.80;;;;;;10456035;28;20197;-79
2022/09/03 09:21:27;;;;;;;5.30;4.90;;;24.00;90.50;;;;;;10456357;28;20205;-79
2022/09/03 09:26:29;;;;;;;9.90;5.27;;;23.90;89.90;;;;;;10440821;28;20240;-79
2022/09/03 09:31:32;;;;;;;5.80;5.47;;;23.80;90.70;;;;;;10458452;28;20255;-80
2022/09/03 09:36:43;;;;;;;6.50;6.00;;;23.70;90.60;;;;;;10454286;28;20231;-79
2022/09/03 09:42:01;;;;;;;12.07;5.90;;;23.60;90.80;;;;;;10454822;28;20221;-80
2022/09/03 09:47:06;;;;;;;6.37;5.83;;;23.70;91.20;;;;;;10456653;28;20361;-80
2022/09/03 09:52:11;;;;;;;5.83;4.73;;;24.00;90.40;;;;;;10459088;28;20247;-78
2022/09/03 09:57:17;;;;;;;6.30;5.90;;;24.30;89.40;;;;;;10459578;28;20217;-80
2022/09/03 10:02:25;;;;;;;5.90;5.50;;;24.60;87.40;;;;;;10455761;28;20225;-79
2022/09/03 10:07:31;;;;;;;4.37;4.10;;;24.80;87.80;;;;;;10438901;28;20190;-79
2022/09/03 10:12:42;;;;;;;5.33;5.03;;;25.10;87.10;;;;;;10419375;28;20217;-79
2022/09/03 10:17:51;;;;;;;5.13;4.83;;;25.20;86.50;;;;;;10444431;28;20228;-80
2022/09/03 10:22:57;;;;;;;5.00;4.80;;;25.30;85.90;;;;;;10460078;28;20209;-81
2022/09/03 10:28:00;;;;;;;4.80;4.50;;;25.30;85.50;;;;;;10460052;28;20205;-81
2022/09/03 10:33:11;;;;;;;5.70;5.40;;;25.30;85.20;;;;;;10459068;28;20266;-80
2022/09/03 10:38:22;;;;;;;6.40;6.00;;;25.30;85.70;;;;;;10460686;28;20213;-81
2022/09/03 10:43:44;;;;;;;6.93;6.53;;;25.30;83.40;;;;;;10463920;28;20830;-82
2022/09/03 10:49:03;;;;;;;4.87;4.57;;;25.10;83.10;;;;;;10461966;28;20231;-81
2022/09/03 10:54:39;;;;;;;5.83;5.43;;;25.00;85.70;;;;;;10463384;28;20228;-80
2022/09/03 10:59:58;;;;;;;6.30;5.90;;;24.80;85.50;;;;;;10416637;28;20213;-80
2022/09/03 11:05:06;;;;;;;6.60;6.20;;;24.80;85.20;;;;;;10469245;28;20203;-77
2022/09/03 11:10:18;;;;;;;4.97;4.43;;;24.70;85.40;;;;;;10450819;28;20270;-79
2022/09/03 11:15:26;;;;;;;5.80;5.50;;;24.70;84.10;;;;;;10443733;28;20201;-80
2022/09/03 11:20:29;;;;;;;5.70;5.20;;;24.70;87.00;;;;;;10440999;28;20886;-79
2022/09/03 11:25:36;;;;;;;5.20;4.67;;;24.70;86.50;;;;;;10452910;28;20197;-80
2022/09/03 11:30:48;;;;;;;6.73;3.80;;;24.70;87.20;;;;;;10439714;28;20220;-81
2022/09/03 11:35:57;;;;;;;5.87;5.50;;;24.70;86.40;;;;;;10450677;28;20197;-80
2022/09/03 11:41:03;;;;;;;5.73;5.40;;;24.70;84.30;;;;;;10458543;28;20213;-80
2022/09/03 11:46:11;;;;;;;4.90;4.63;;;24.60;86.30;;;;;;10467983;28;20197;-80
2022/09/03 11:51:34;;;;;;;5.53;5.20;;;24.50;87.30;;;;;;10457916;28;20315;-80
2022/09/03 11:56:37;;;;;;;5.17;4.87;;;24.40;87.10;;;;;;10465917;28;20204;-80
2022/09/03 12:01:44;;;;;;;6.07;5.57;;;24.20;86.10;;;;;;10456578;28;20355;-81
2022/09/03 12:07:00;;;;;;;6.40;6.00;;;24.00;86.30;;;;;;10455928;28;20649;-81
2022/09/03 12:12:14;;;;;;;5.40;5.10;;;23.80;88.40;;;;;;10450717;28;20213;-80
2022/09/03 12:17:27;;;;;;;6.50;6.00;;;23.70;90.70;;;;;;10448792;28;20690;-80
2022/09/03 12:22:30;;;;;;;6.37;5.90;;;23.50;91.40;;;;;;10450685;28;20292;-81
2022/09/03 12:27:33;;;;;;;10.17;9.40;;;23.30;92.30;;;;;;10457755;28;20200;-81
2022/09/03 12:32:36;;;;;;;7.53;6.63;;;23.10;94.70;;;;;;10450607;28;20233;-82
2022/09/03 12:37:41;;;;;;;6.03;5.63;;;23.00;95.30;;;;;;10443906;28;20193;-81
2022/09/03 12:42:45;;;;;;;5.50;5.10;;;22.90;95.80;;;;;;10471844;28;20276;-81
2022/09/03 12:47:47;;;;;;;4.43;4.13;;;22.70;95.80;;;;;;10474784;28;20281;-80
2022/09/03 12:52:52;;;;;;;4.10;2.80;;;22.50;96.30;;;;;;10472353;28;20215;-81
2022/09/03 12:58:01;;;;;;;4.90;4.60;;;22.20;96.40;;;;;;10468141;28;20205;-80
2022/09/03 13:03:06;;;;;;;4.87;4.50;;;21.90;97.90;;;;;;10439291;28;20244;-81
2022/09/03 13:08:14;;;;;;;7.50;6.80;;;21.60;99.90;;;;;;10442359;28;20219;-81
2022/09/03 13:13:23;;;;;;;8.30;7.90;;;21.20;99.90;;;;;;10455910;28;20217;-81
2022/09/03 13:18:30;;;;;;;7.53;6.70;;;20.80;99.90;;;;;;10472854;28;20213;-80
2022/09/03 13:23:51;;;;;;;12.17;11.57;;;20.60;99.90;;;;;;10479513;28;20201;-81
2022/09/03 13:29:21;;;;;;;12.37;11.70;;;20.50;99.90;;;;;;10473624;28;20733;-80
2022/09/03 13:34:30;;;;;;;14.07;13.33;;;20.30;99.90;;;;;;10473581;28;20201;-81
2022/09/03 13:39:39;;;;;;;14.80;14.10;;;20.30;99.90;;;;;;10479798;28;20732;-81
2022/09/03 13:44:48;;;;;;;13.70;12.90;;;20.50;99.90;;;;;;10470884;28;20622;-81
2022/09/03 13:55:21;;;;;;;9.60;9.00;;;20.70;99.90;;;;;;10440559;28;20205;-83
2022/09/03 14:00:30;;;;;;;7.33;7.03;;;20.70;99.90;;;;;;10461761;28;20327;-84
2022/09/03 14:05:45;;;;;;;7.63;7.10;;;20.60;99.90;;;;;;10417698;28;20209;-80
2022/09/03 14:11:03;;;;;;;8.60;8.10;;;20.50;99.90;;;;;;10420619;28;20217;-83
2022/09/03 14:16:13;;;;;;;6.60;6.30;;;20.40;99.90;;;;;;10430247;28;20181;-82
2022/09/03 14:21:20;;;;;;;6.23;5.93;;;20.60;99.90;;;;;;10472327;28;20217;-82
2022/09/03 14:26:29;;;;;;;7.43;6.83;;;20.80;99.90;;;;;;10454508;28;20229;-82
2022/09/03 14:31:57;;;;;;;6.40;6.10;;;20.90;99.90;;;;;;10409048;28;20221;-81
2022/09/03 14:37:09;;;;;;;6.70;6.40;;;21.00;99.90;;;;;;10430807;28;20193;-83
2022/09/03 14:42:45;;;;;;;7.80;7.30;;;21.10;99.90;;;;;;10442053;28;20692;-83
2022/09/03 14:48:08;;;;;;;6.03;5.73;;;21.10;99.90;;;;;;10455105;28;20200;-82
2022/09/03 14:53:29;;;;;;;4.37;4.17;;;21.10;99.90;;;;;;10457603;28;20212;-85
2022/09/03 14:58:46;;;;;;;5.43;5.23;;;21.30;99.90;;;;;;10440670;28;20224;-83
2022/09/03 15:04:25;;;;;;;5.40;5.10;;;21.60;99.90;;;;;;10459458;28;20213;-84
2022/09/03 15:09:33;;;;;;;3.37;3.17;;;21.80;99.90;;;;;;10461304;28;20223;-80
2022/09/03 15:14:41;;;;;;;4.40;4.20;;;22.00;99.90;;;;;;10470457;28;20193;-78
2022/09/03 15:19:58;;;;;;;4.20;4.00;;;22.10;99.90;;;;;;10466607;28;20308;-80
2022/09/03 15:25:13;;;;;;;4.80;4.60;;;22.20;99.90;;;;;;10460141;28;20284;-79
2022/09/03 15:30:18;;;;;;;4.77;4.57;;;22.30;99.90;;;;;;10461633;28;20221;-79
2022/09/03 15:35:41;;;;;;;10.03;9.23;;;22.50;99.90;;;;;;10467628;28;20228;-79
2022/09/03 15:40:51;;;;;;;4.60;4.40;;;22.60;99.90;;;;;;10500734;22;20232;-79
2022/09/03 15:45:57;;;;;;;4.27;4.07;;;22.60;99.90;;;;;;10439031;28;20220;-79
2022/09/03 15:51:23;;;;;;;5.53;5.20;;;22.70;99.90;;;;;;10515097;23;20240;-79
2022/09/03 15:57:06;;;;;;;4.70;4.50;;;22.80;99.90;;;;;;10453441;28;20224;-80
2022/09/03 16:08:57;;;;;;;4.53;4.20;;;22.60;99.90;;;;;;10382421;28;20685;-79
2022/09/03 16:14:08;;;;;;;5.93;5.33;;;22.40;99.90;;;;;;10411921;28;20191;-80
2022/09/03 16:19:17;;;;;;;4.87;4.57;;;22.40;99.90;;;;;;10410062;28;20214;-78
2022/09/03 16:24:24;;;;;;;4.80;4.50;;;22.30;99.90;;;;;;10408017;28;20239;-79
2022/09/03 16:29:29;;;;;;;4.00;3.80;;;22.30;99.90;;;;;;10379415;28;20763;-78
2022/09/03 16:34:39;;;;;;;5.80;5.50;;;22.20;99.90;;;;;;10405212;28;20795;-79
2022/09/03 16:39:52;;;;;;;6.47;5.97;;;22.10;99.90;;;;;;10396878;28;20214;-78
2022/09/03 16:45:10;;;;;;;5.87;5.57;;;22.00;99.90;;;;;;10394376;28;20264;-79
2022/09/03 16:50:29;;;;;;;6.20;5.80;;;22.00;99.90;;;;;;10411781;28;20605;-79
2022/09/03 16:55:48;;;;;;;5.77;5.47;;;21.90;99.90;;;;;;10386862;28;20198;-79
2022/09/03 17:01:05;;;;;;;6.70;6.20;;;21.90;99.90;;;;;;10394807;28;20580;-79
2022/09/03 17:06:36;;;;;;;6.60;6.10;;;21.90;99.90;;;;;;10398714;28;20197;-79
2022/09/03 17:11:51;;;;;;;5.10;4.80;;;22.00;99.90;;;;;;10389393;28;20222;-80
2022/09/03 17:17:04;;;;;;;5.57;5.17;;;22.10;99.90;;;;;;10396641;28;20709;-78
2022/09/03 17:22:22;;;;;;;5.47;5.17;;;22.10;99.90;;;;;;10408479;28;20631;-79
2022/09/03 17:27:52;;;;;;;5.57;5.17;;;22.10;99.90;;;;;;10392352;28;20221;-81
2022/09/03 17:33:25;;;;;;;5.20;5.00;;;22.00;99.90;;;;;;10403694;28;20229;-81
2022/09/03 17:38:47;;;;;;;5.43;5.03;;;22.00;99.90;;;;;;10401385;28;20214;-79
2022/09/03 17:44:00;;;;;;;4.93;4.63;;;21.90;99.90;;;;;;10422249;28;20194;-80
2022/09/03 17:49:06;;;;;;;3.70;3.50;;;21.70;99.90;;;;;;10415225;28;20320;-80
2022/09/03 17:54:16;;;;;;;4.43;4.17;;;21.60;99.90;;;;;;10403832;28;20230;-79
2022/09/03 17:59:31;;;;;;;5.10;4.80;;;21.60;99.90;;;;;;10422839;28;20228;-80
2022/09/03 18:04:46;;;;;;;15.40;13.80;;;21.40;99.90;;;;;;10418425;28;20261;-82
2022/09/03 18:09:59;;;;;;;5.90;5.50;;;21.40;99.90;;;;;;10403101;28;20570;-82
2022/09/03 18:15:12;;;;;;;7.80;7.10;;;21.20;99.90;;;;;;10423414;28;20206;-80
2022/09/03 20:14:53;;;;;;;4.70;4.50;;;19.80;99.90;;;;;;10414352;28;20578;-78
2022/09/03 20:20:09;;;;;;;5.00;4.50;;;19.90;99.90;;;;;;10410279;28;20225;-79
2022/09/03 20:25:42;;;;;;;4.60;4.30;;;19.90;99.90;;;;;;10402039;28;20194;-79
2022/09/03 20:30:50;;;;;;;4.50;4.20;;;19.90;99.90;;;;;;10398808;28;20230;-79
2022/09/03 20:36:01;;;;;;;4.60;4.40;;;19.90;99.90;;;;;;10406544;28;20526;-79
2022/09/03 20:41:15;;;;;;;4.57;4.20;;;19.90;99.90;;;;;;10422374;28;20228;-79
2022/09/03 20:46:33;;;;;;;5.00;4.60;;;20.00;99.90;;;;;;10410149;28;20578;-79
2022/09/03 20:51:44;;;;;;;6.33;5.03;;;20.00;99.90;;;;;;10419287;28;20249;-77
2022/09/03 20:57:23;;;;;;;27.40;24.90;;;19.90;99.90;;;;;;10381306;28;20223;-78
2022/09/03 21:02:32;;;;;;;6.60;6.10;;;20.00;99.90;;;;;;10414331;28;20559;-78
2022/09/03 21:07:45;;;;;;;6.00;5.60;;;19.90;99.90;;;;;;10424719;28;20205;-79
2022/09/03 21:13:00;;;;;;;5.40;5.00;;;20.00;99.90;;;;;;10423146;28;20260;-81
2022/09/03 21:18:09;;;;;;;4.73;4.33;;;19.90;99.90;;;;;;10418907;28;20736;-78
2022/09/03 21:23:19;;;;;;;4.97;4.67;;;19.90;99.90;;;;;;10418141;28;20252;-78
2022/09/03 21:28:30;;;;;;;5.33;4.93;;;19.90;99.90;;;;;;10417738;28;20248;-81
2022/09/03 21:33:37;;;;;;;5.77;5.40;;;19.90;99.90;;;;;;10415255;28;20224;-78
2022/09/03 21:38:42;;;;;;;7.40;6.77;;;19.80;99.90;;;;;;10415324;28;20758;-78
2022/09/03 21:43:52;;;;;;;5.53;5.23;;;19.80;99.90;;;;;;10400573;28;20293;-79
2022/09/03 21:48:58;;;;;;;5.33;5.03;;;19.80;99.90;;;;;;10413678;28;20218;-78
2022/09/03 21:54:05;;;;;;;5.10;4.90;;;19.90;99.90;;;;;;10415128;28;20262;-78
2022/09/03 21:59:18;;;;;;;16.20;14.90;;;19.90;99.90;;;;;;10414520;28;20210;-78
2022/09/03 22:04:20;;;;;;;13.40;12.23;;;19.90;99.90;;;;;;10408139;28;20194;-80
2022/09/03 22:09:30;;;;;;;13.07;12.27;;;19.80;99.90;;;;;;10424990;28;20230;-78
2022/09/03 22:14:40;;;;;;;13.00;11.80;;;19.60;99.90;;;;;;10415580;28;20264;-78
2022/09/03 22:19:44;;;;;;;12.50;11.80;;;19.40;99.90;;;;;;10413934;28;20640;-78
2022/09/03 22:24:54;;;;;;;12.77;12.07;;;19.20;99.90;;;;;;10414301;28;20643;-78
2022/09/03 22:30:05;;;;;;;11.23;10.63;;;19.00;99.90;;;;;;10412392;28;20380;-78
2022/09/03 22:35:27;;;;;;;10.33;9.90;;;19.00;99.90;;;;;;10402574;28;20231;-77
2022/09/03 22:40:37;;;;;;;12.03;11.40;;;19.00;99.90;;;;;;10455216;28;20288;-78
2022/09/03 22:45:53;;;;;;;12.27;11.67;;;19.00;99.90;;;;;;10437227;28;20205;-77
2022/09/03 22:50:57;;;;;;;12.17;11.57;;;19.10;99.90;;;;;;10440983;28;20567;-78
2022/09/03 22:56:06;;;;;;;11.10;10.37;;;19.10;99.90;;;;;;10416213;28;20202;-78
2022/09/03 23:01:17;;;;;;;11.00;10.30;;;19.10;99.90;;;;;;10421488;28;20213;-78
2022/09/03 23:06:25;;;;;;;9.83;9.33;;;19.00;99.90;;;;;;10430271;28;20296;-77
2022/09/03 23:11:33;;;;;;;11.30;10.60;;;19.00;99.90;;;;;;10416128;28;20268;-78
2022/09/03 23:16:41;;;;;;;9.80;9.00;;;18.90;99.90;;;;;;10385402;28;20596;-77
2022/09/03 23:21:50;;;;;;;10.30;9.70;;;18.90;99.90;;;;;;10404020;28;20272;-78
2022/09/03 23:26:53;;;;;;;8.40;8.00;;;18.90;99.90;;;;;;10433603;28;20198;-77
2022/09/03 23:31:58;;;;;;;9.17;8.77;;;18.90;99.90;;;;;;10413236;28;20300;-78
2022/09/03 23:37:13;;;;;;;10.20;9.60;;;18.80;99.90;;;;;;10417558;28;20202;-78
2022/09/03 23:42:25;;;;;;;10.30;9.80;;;18.80;99.90;;;;;;10414067;28;20275;-78
2022/09/03 23:47:39;;;;;;;9.77;9.17;;;18.80;99.90;;;;;;10430482;28;20193;-78
2022/09/03 23:52:56;;;;;;;9.30;8.87;;;18.70;99.90;;;;;;10399700;28;20226;-78
2022/09/03 23:58:09;;;;;;;9.10;8.60;;;18.70;99.90;;;;;;10445082;28;20212;-78
